Terminal Aerodrome Forecast
Issued by NWS

Home | Current Version | Previous Version | Text Only | Print | Product List | Glossary On
Versions: 1 2 3 4 5 6 7 8 9 10 11 12 13 14 15 16 17 18
000
FTUS46 KMTR 280520
TAFMRY
TAF
KMRY 280520Z 2806/2906 28008KT P6SM FEW015 SCT250
      TEMPO 2812/2816 BKN008 OVC250
     FM281800 28012KT P6SM SCT250
     FM290300 24004KT P6SM SCT250=

USA.gov is the U.S. government's official web portal to all federal, state and local government web resources and services.